createdAt,value
2023-05-05T00:02:15.490Z,100198.78
2023-05-05T00:04:43.427Z,100186.94
2023-05-05T00:07:10.746Z,100187.13
2023-05-05T00:09:39.205Z,100192.13
2023-05-05T00:12:06.617Z,100199.38
2023-05-05T00:14:34.306Z,100194.59
2023-05-05T00:17:01.611Z,100196.25
2023-05-05T00:19:29.238Z,100190.66
2023-05-05T00:21:56.614Z,100196.47
2023-05-05T00:24:24.290Z,100178.31
2023-05-05T00:26:51.603Z,100179.56
2023-05-05T00:29:19.176Z,100193.97
2023-05-05T00:31:46.559Z,100198.00
2023-05-05T00:34:14.330Z,100192.41
2023-05-05T00:36:41.680Z,100186.97
2023-05-05T00:39:09.986Z,100191.34
2023-05-05T00:41:37.206Z,100197.59
2023-05-05T00:44:07.847Z,100195.53
2023-05-05T00:46:36.352Z,100191.81
2023-05-05T00:49:04.489Z,100190.56
2023-05-05T00:51:32.308Z,100183.06
2023-05-05T00:54:00.783Z,100194.13
2023-05-05T00:56:28.136Z,100172.19
2023-05-05T00:58:56.485Z,100174.94
2023-05-05T01:01:24.298Z,100170.97
2023-05-05T01:03:52.374Z,100185.19
2023-05-05T01:06:26.242Z,100185.59
2023-05-05T01:09:12.278Z,100188.75
2023-05-05T01:11:59.779Z,100184.00
2023-05-05T01:14:43.457Z,100183.13
2023-05-05T01:17:19.633Z,100182.91
2023-05-05T01:20:17.043Z,100186.50
2023-05-05T01:22:57.484Z,100187.09
2023-05-05T01:25:41.564Z,100178.72
2023-05-05T01:28:19.729Z,100163.50
2023-05-05T01:31:38.304Z,100183.94
2023-05-05T01:34:08.839Z,100181.81
2023-05-05T01:36:42.440Z,100182.44
2023-05-05T01:39:15.180Z,100184.91
2023-05-05T01:41:49.679Z,100178.44
2023-05-05T01:44:20.012Z,100179.44
2023-05-05T01:46:50.541Z,100165.28
2023-05-05T01:49:17.864Z,100173.38
2023-05-05T01:51:47.088Z,100179.56
2023-05-05T01:54:16.763Z,100177.28
2023-05-05T01:56:46.562Z,100177.63
2023-05-05T01:59:14.070Z,100182.81
2023-05-05T02:01:46.000Z,100174.03
2023-05-05T02:04:15.203Z,100174.00
2023-05-05T02:06:45.465Z,100177.72
2023-05-05T02:09:14.347Z,100181.44
2023-05-05T02:11:42.686Z,100167.59
2023-05-05T02:14:11.855Z,100175.91
2023-05-05T02:16:41.715Z,100170.91
2023-05-05T02:19:09.450Z,100185.72
2023-05-05T02:21:37.864Z,100165.25
2023-05-05T02:24:10.353Z,100184.59
2023-05-05T02:26:40.790Z,100175.47
2023-05-05T02:29:20.188Z,100178.38
2023-05-05T02:31:55.855Z,100156.25
2023-05-05T02:34:31.122Z,100167.94
2023-05-05T02:37:03.074Z,100176.13
2023-05-05T02:39:44.135Z,100173.19
2023-05-05T02:42:20.653Z,100176.25
2023-05-05T02:44:52.033Z,100178.75
2023-05-05T02:47:20.976Z,100169.84
2023-05-05T02:49:49.791Z,100163.41
2023-05-05T02:52:17.468Z,100176.78
2023-05-05T02:54:45.885Z,100187.00
2023-05-05T02:57:20.880Z,100171.97
2023-05-05T03:00:07.214Z,100157.59
2023-05-05T03:03:03.116Z,100164.34
2023-05-05T03:05:40.224Z,100176.47
2023-05-05T03:08:17.118Z,100166.91
2023-05-05T03:10:59.150Z,100174.44
2023-05-05T03:13:29.624Z,100164.44
2023-05-05T03:15:59.315Z,100166.78
2023-05-05T03:18:29.982Z,100173.25
2023-05-05T03:21:08.895Z,100162.81
2023-05-05T03:23:39.803Z,100169.84
2023-05-05T03:26:17.370Z,100165.50
2023-05-05T03:28:45.247Z,100179.09
2023-05-05T03:31:33.169Z,100147.78
2023-05-05T03:34:02.321Z,100177.28
2023-05-05T03:36:36.211Z,100171.00
2023-05-05T03:39:04.182Z,100185.22
2023-05-05T03:41:34.010Z,100175.63
2023-05-05T03:44:01.971Z,100184.00
2023-05-05T03:46:30.025Z,100162.31
2023-05-05T03:48:57.691Z,100161.28
2023-05-05T03:51:27.042Z,100164.88
2023-05-05T03:53:55.484Z,100166.75
2023-05-05T03:56:23.261Z,100173.06
2023-05-05T03:58:55.720Z,100171.16
2023-05-05T04:01:23.579Z,100172.41
2023-05-05T04:03:53.775Z,100177.84
2023-05-05T04:06:21.067Z,100184.72
2023-05-05T04:08:48.658Z,100185.56
2023-05-05T04:11:16.205Z,100181.78
2023-05-05T04:13:43.793Z,100175.09
2023-05-05T04:16:11.213Z,100177.63
2023-05-05T04:18:39.334Z,100189.09
2023-05-05T04:21:06.931Z,100183.47
2023-05-05T04:23:36.781Z,100181.19
2023-05-05T04:26:04.023Z,100181.41
2023-05-05T04:28:31.693Z,100177.63
2023-05-05T04:31:01.248Z,100178.31
2023-05-05T04:33:31.429Z,100174.78
2023-05-05T04:35:58.899Z,100188.34
2023-05-05T04:38:26.909Z,100179.38
2023-05-05T04:40:54.455Z,100184.59
2023-05-05T04:43:22.926Z,100188.13
2023-05-05T04:45:56.769Z,100188.13
2023-05-05T04:48:28.324Z,100196.53
2023-05-05T04:50:57.487Z,100183.00
2023-05-05T04:53:27.254Z,100188.44
2023-05-05T04:55:54.740Z,100196.56
2023-05-05T04:58:22.326Z,100185.47
2023-05-05T05:00:50.021Z,100193.84
2023-05-05T05:03:19.672Z,100193.09
2023-05-05T05:05:47.483Z,100192.47
2023-05-05T05:08:20.960Z,100202.09
2023-05-05T05:10:48.550Z,100184.94
2023-05-05T05:13:16.091Z,100195.78
2023-05-05T05:15:43.423Z,100198.69
2023-05-05T05:18:11.296Z,100203.19
2023-05-05T05:20:39.746Z,100214.66
2023-05-05T05:23:08.581Z,100209.91
2023-05-05T05:25:40.452Z,100214.75
2023-05-05T05:28:10.594Z,100217.47
2023-05-05T05:30:49.580Z,100207.53
2023-05-05T05:33:17.103Z,100203.13
2023-05-05T05:35:45.300Z,100215.44
2023-05-05T05:38:13.303Z,100207.09
2023-05-05T05:40:41.024Z,100224.84
2023-05-05T05:43:09.379Z,100222.63
2023-05-05T05:45:38.754Z,100221.69
2023-05-05T05:48:08.063Z,100236.50
2023-05-05T05:50:36.048Z,100226.88
2023-05-05T05:53:03.738Z,100223.56
2023-05-05T05:55:31.476Z,100230.72
2023-05-05T05:57:59.485Z,100229.00
2023-05-05T06:00:27.257Z,100225.13
2023-05-05T06:03:02.693Z,100235.50
2023-05-05T06:05:33.227Z,100226.94
2023-05-05T06:08:01.496Z,100237.56
2023-05-05T06:10:30.536Z,100225.28
2023-05-05T06:13:03.169Z,100221.50
2023-05-05T06:15:32.134Z,100232.88
2023-05-05T06:18:01.756Z,100227.78
2023-05-05T06:20:29.112Z,100234.13
2023-05-05T06:22:57.118Z,100232.56
2023-05-05T06:25:26.370Z,100242.22
2023-05-05T06:27:53.944Z,100244.06
2023-05-05T06:30:21.733Z,100227.50
2023-05-05T06:32:49.389Z,100243.88
2023-05-05T06:35:16.589Z,100232.66
2023-05-05T06:37:44.439Z,100236.28
2023-05-05T06:40:14.204Z,100235.41
2023-05-05T06:42:42.046Z,100238.59
2023-05-05T06:45:14.168Z,100228.28
2023-05-05T06:47:42.584Z,100232.66
2023-05-05T06:50:10.664Z,100235.78
2023-05-05T06:52:38.556Z,100223.78
2023-05-05T06:55:06.649Z,100228.72
2023-05-05T06:57:34.171Z,100236.91
2023-05-05T07:00:04.129Z,100238.41
2023-05-05T07:02:34.390Z,100231.34
2023-05-05T07:05:01.703Z,100232.56
2023-05-05T07:07:29.453Z,100241.50
2023-05-05T07:09:56.607Z,100244.25
2023-05-05T07:12:24.337Z,100244.22
2023-05-05T07:14:51.615Z,100240.31
2023-05-05T07:17:19.190Z,100250.25
2023-05-05T07:19:46.505Z,100250.78
2023-05-05T07:22:14.027Z,100236.75
2023-05-05T07:24:41.386Z,100240.47
2023-05-05T07:27:09.643Z,100238.84
2023-05-05T07:29:36.841Z,100246.81
2023-05-05T07:32:04.668Z,100246.91
2023-05-05T07:34:34.582Z,100235.72
2023-05-05T07:37:02.449Z,100256.63
2023-05-05T07:39:29.683Z,100247.13
2023-05-05T07:41:57.326Z,100244.50
2023-05-05T07:44:24.697Z,100243.34
2023-05-05T07:46:52.231Z,100252.25
2023-05-05T07:49:20.275Z,100254.66
2023-05-05T07:51:50.300Z,100263.06
2023-05-05T07:54:17.901Z,100257.84
2023-05-05T07:56:45.482Z,100253.75
2023-05-05T07:59:12.894Z,100250.69
2023-05-05T08:01:40.450Z,100248.66
2023-05-05T08:04:08.172Z,100245.97
2023-05-05T08:06:36.236Z,100243.28
2023-05-05T08:09:03.574Z,100248.03
2023-05-05T08:11:31.094Z,100249.66
2023-05-05T08:13:58.609Z,100254.63
2023-05-05T08:16:26.190Z,100250.56
2023-05-05T08:18:53.389Z,100249.88
2023-05-05T08:21:21.081Z,100253.72
2023-05-05T08:23:49.772Z,100251.84
2023-05-05T08:26:20.180Z,100251.63
2023-05-05T08:28:47.622Z,100239.94
2023-05-05T08:31:16.009Z,100242.69
2023-05-05T08:33:43.268Z,100250.88
2023-05-05T08:36:11.711Z,100250.19
2023-05-05T08:38:38.894Z,100247.91
2023-05-05T08:41:08.888Z,100248.66
2023-05-05T08:43:36.632Z,100247.59
2023-05-05T08:46:05.285Z,100243.53
2023-05-05T08:48:34.088Z,100236.69
2023-05-05T08:51:05.649Z,100245.25
2023-05-05T08:54:03.213Z,100250.22
2023-05-05T08:56:40.334Z,100222.84
2023-05-05T08:59:10.050Z,100238.00
2023-05-05T09:01:38.297Z,100236.13
2023-05-05T09:04:07.804Z,100241.00
2023-05-05T09:06:37.252Z,100234.38
2023-05-05T09:09:04.684Z,100237.06
2023-05-05T09:11:34.464Z,100161.44
2023-05-05T09:14:02.089Z,100228.97
2023-05-05T09:16:29.811Z,100218.47
2023-05-05T09:19:04.290Z,100217.84
2023-05-05T09:21:32.528Z,100228.41
2023-05-05T09:24:11.390Z,100231.78
2023-05-05T09:26:42.541Z,100218.72
2023-05-05T09:29:10.215Z,100227.56
2023-05-05T09:31:38.066Z,100227.00
2023-05-05T09:34:16.488Z,100228.31
2023-05-05T09:36:48.367Z,100232.28
2023-05-05T09:39:20.457Z,100225.03
2023-05-05T09:41:48.085Z,100223.00
2023-05-05T09:44:18.316Z,100221.66
2023-05-05T09:46:53.275Z,100220.19
2023-05-05T09:49:26.780Z,100220.34
2023-05-05T09:51:55.223Z,100216.56
2023-05-05T09:54:27.600Z,100215.72
2023-05-05T09:56:56.806Z,100206.34
2023-05-05T09:59:24.595Z,100204.84
2023-05-05T10:01:52.430Z,100198.50
2023-05-05T10:04:25.073Z,100204.47
2023-05-05T10:06:52.827Z,100187.25
2023-05-05T10:09:20.265Z,100192.50
2023-05-05T10:11:48.330Z,100192.13
2023-05-05T10:14:16.361Z,100182.84
2023-05-05T10:16:49.187Z,100180.78
2023-05-05T10:19:18.665Z,100184.97
2023-05-05T10:21:54.524Z,100187.97
2023-05-05T10:24:47.329Z,100193.41
2023-05-05T10:27:20.202Z,100178.19
2023-05-05T10:30:02.758Z,100169.13
2023-05-05T10:35:02.863Z,100173.84
2023-05-05T10:37:31.138Z,100159.31
2023-05-05T10:39:59.380Z,100169.59
2023-05-05T10:42:27.913Z,100167.19
2023-05-05T10:44:55.942Z,100144.59
2023-05-05T10:47:24.670Z,100163.94
2023-05-05T10:50:02.514Z,100151.41
2023-05-05T10:52:36.957Z,100155.25
2023-05-05T10:55:16.636Z,100149.44
2023-05-05T10:57:45.759Z,100146.53
2023-05-05T11:00:39.979Z,100153.03
2023-05-05T11:03:16.872Z,100149.53
2023-05-05T11:06:02.975Z,100141.25
2023-05-05T11:08:31.320Z,100137.47
2023-05-05T11:10:59.406Z,100141.38
2023-05-05T11:13:27.398Z,100137.53
2023-05-05T11:15:55.929Z,100135.88
2023-05-05T11:18:40.604Z,100132.81
2023-05-05T11:21:15.997Z,100133.84
2023-05-05T11:23:51.670Z,100122.78
2023-05-05T11:26:51.913Z,100130.69
2023-05-05T11:29:19.569Z,100114.53
2023-05-05T11:32:13.803Z,100117.41
2023-05-05T11:34:50.975Z,100110.81
2023-05-05T11:37:22.697Z,100102.59
2023-05-05T11:40:23.967Z,100110.97
2023-05-05T11:43:04.855Z,100101.41
2023-05-05T11:45:32.820Z,100090.25
2023-05-05T11:48:25.110Z,100098.28
2023-05-05T11:50:53.863Z,100083.28
2023-05-05T11:53:21.128Z,100074.97
2023-05-05T11:55:48.947Z,100085.94
2023-05-05T11:58:20.140Z,100076.97
2023-05-05T12:00:48.269Z,100084.88
2023-05-05T12:03:17.987Z,100086.41
2023-05-05T12:05:47.574Z,100086.50
2023-05-05T12:08:14.984Z,100074.28
2023-05-05T12:10:42.890Z,100072.22
2023-05-05T12:13:20.386Z,100063.31
2023-05-05T12:15:48.120Z,100057.50
2023-05-05T12:18:19.520Z,100065.22
2023-05-05T12:20:47.383Z,100061.34
2023-05-05T12:23:14.981Z,100068.09
2023-05-05T12:25:42.524Z,100060.97
2023-05-05T12:28:09.943Z,100060.66
2023-05-05T12:30:37.827Z,100050.63
2023-05-05T12:33:07.349Z,100044.72
2023-05-05T12:35:35.882Z,100049.31
2023-05-05T12:38:03.388Z,100047.28
2023-05-05T12:40:53.097Z,100033.19
2023-05-05T12:43:31.904Z,100039.38
2023-05-05T12:46:07.128Z,100041.94
2023-05-05T12:48:35.987Z,100028.00
2023-05-05T12:51:23.536Z,100029.91
2023-05-05T12:54:11.215Z,100018.50
2023-05-05T12:56:46.871Z,100014.44
2023-05-05T12:59:23.040Z,100014.53
2023-05-05T13:01:54.748Z,100012.91
2023-05-05T13:04:26.290Z,100008.22
2023-05-05T13:07:13.185Z,100002.34
2023-05-05T13:09:40.970Z,99992.88
2023-05-05T13:12:11.717Z,99982.28
2023-05-05T13:14:40.167Z,99984.53
2023-05-05T13:17:08.082Z,99989.56
2023-05-05T13:19:35.953Z,99982.38
2023-05-05T13:22:03.703Z,99980.38
2023-05-05T13:24:42.782Z,99975.59
2023-05-05T13:27:14.671Z,99974.50
2023-05-05T13:29:42.497Z,99977.09
2023-05-05T13:32:10.128Z,99968.72
2023-05-05T13:34:39.338Z,99975.44
2023-05-05T13:37:07.402Z,99964.88
2023-05-05T13:39:34.915Z,99965.03
2023-05-05T13:42:03.027Z,99959.38
2023-05-05T13:44:31.566Z,99954.63
2023-05-05T13:46:59.275Z,99947.97
2023-05-05T13:49:27.197Z,99955.16
2023-05-05T13:51:56.364Z,99954.16
2023-05-05T13:54:23.673Z,99952.03
2023-05-05T13:56:51.251Z,99956.00
2023-05-05T13:59:18.525Z,99947.44
2023-05-05T14:01:46.107Z,99952.75
2023-05-05T14:04:13.538Z,99948.69
2023-05-05T14:06:41.306Z,99945.81
2023-05-05T14:09:08.626Z,99947.06
2023-05-05T14:11:36.252Z,99940.19
2023-05-05T14:14:03.483Z,99929.50
2023-05-05T14:16:31.139Z,99932.78
2023-05-05T14:18:58.515Z,99942.56
2023-05-05T14:21:26.144Z,99931.19
2023-05-05T14:23:53.517Z,99936.31
2023-05-05T14:26:22.979Z,99947.09
2023-05-05T14:28:50.371Z,99938.88
2023-05-05T14:31:18.018Z,99922.84
2023-05-05T14:33:45.203Z,99918.28
2023-05-05T14:36:14.402Z,99930.75
2023-05-05T14:38:42.978Z,99924.25
2023-05-05T14:41:10.785Z,99918.03
2023-05-05T14:43:38.060Z,99917.56
2023-05-05T14:46:07.272Z,99923.72
2023-05-05T14:48:34.975Z,99909.44
2023-05-05T14:51:02.639Z,99919.38
2023-05-05T14:53:29.972Z,99923.41
2023-05-05T14:55:57.650Z,99912.66
2023-05-05T14:58:25.405Z,99909.59
2023-05-05T15:00:54.651Z,99920.31
2023-05-05T15:03:22.605Z,99919.59
2023-05-05T15:05:51.382Z,99924.97
2023-05-05T15:08:22.146Z,99910.94
2023-05-05T15:10:49.796Z,99920.31
2023-05-05T15:13:17.469Z,99913.91
2023-05-05T15:15:45.392Z,99917.53
2023-05-05T15:18:16.009Z,99919.75
2023-05-05T15:20:44.329Z,99917.81
2023-05-05T15:23:12.085Z,99916.28
2023-05-05T15:25:39.565Z,99907.78
2023-05-05T15:28:06.844Z,99904.69
2023-05-05T15:30:34.610Z,99908.81
2023-05-05T15:33:03.122Z,99903.34
2023-05-05T15:35:30.926Z,99913.59
2023-05-05T15:37:58.392Z,99913.25
2023-05-05T15:40:26.368Z,99901.13
2023-05-05T15:42:53.944Z,99893.38
2023-05-05T15:45:21.669Z,99895.03
2023-05-05T15:47:50.692Z,99899.44
2023-05-05T15:50:23.814Z,99892.66
2023-05-05T15:52:58.652Z,99897.06
2023-05-05T15:55:29.674Z,99874.47
2023-05-05T15:57:57.014Z,99882.25
2023-05-05T16:00:25.885Z,99885.25
2023-05-05T16:03:14.178Z,99879.84
2023-05-05T16:05:41.945Z,99886.06
2023-05-05T16:08:10.508Z,99888.03
2023-05-05T16:10:39.428Z,99887.72
2023-05-05T16:13:07.024Z,99883.28
2023-05-05T16:15:35.953Z,99885.75
2023-05-05T16:18:03.168Z,99886.34
2023-05-05T16:20:31.250Z,99888.66
2023-05-05T16:22:59.666Z,99884.78
2023-05-05T16:25:27.258Z,99882.84
2023-05-05T16:27:56.741Z,99885.28
2023-05-05T16:30:24.813Z,99884.25
2023-05-05T16:32:52.473Z,99874.03
2023-05-05T16:35:20.773Z,99883.41
2023-05-05T16:37:48.018Z,99887.28
2023-05-05T16:40:16.113Z,99876.59
2023-05-05T16:42:44.669Z,99855.69
2023-05-05T16:45:12.356Z,99883.78
2023-05-05T16:47:39.742Z,99890.66
2023-05-05T16:50:09.397Z,99878.75
2023-05-05T16:52:36.713Z,99882.59
2023-05-05T16:55:04.966Z,99878.22
2023-05-05T16:57:32.191Z,99888.94
2023-05-05T17:00:00.666Z,99887.84
2023-05-05T17:02:27.962Z,99864.16
2023-05-05T17:04:55.900Z,99889.50
2023-05-05T17:07:23.144Z,99876.81
2023-05-05T17:09:51.189Z,99885.03
2023-05-05T17:12:18.573Z,99885.31
2023-05-05T17:14:46.301Z,99874.56
2023-05-05T17:17:18.109Z,99893.75
2023-05-05T17:19:49.007Z,99884.31
2023-05-05T17:22:16.622Z,99869.41
2023-05-05T17:24:44.978Z,99878.47
2023-05-05T17:27:12.915Z,99877.03
2023-05-05T17:29:41.434Z,99877.56
2023-05-05T17:32:09.408Z,99873.69
2023-05-05T17:34:37.210Z,99886.28
2023-05-05T17:37:04.433Z,99883.47
2023-05-05T17:39:32.004Z,99874.88
2023-05-05T17:41:59.223Z,99883.41
2023-05-05T17:44:27.065Z,99863.44
2023-05-05T17:46:54.350Z,99873.78
2023-05-05T17:49:22.431Z,99875.81
2023-05-05T17:51:49.660Z,99884.47
2023-05-05T17:54:17.522Z,99876.72
2023-05-05T17:56:44.715Z,99889.78
2023-05-05T17:59:13.050Z,99883.69
2023-05-05T18:01:45.261Z,99887.97
2023-05-05T18:04:18.151Z,99897.22
2023-05-05T18:06:45.372Z,99898.16
2023-05-05T18:09:13.406Z,99894.25
2023-05-05T18:11:40.719Z,99899.94
2023-05-05T18:14:08.415Z,99901.63
2023-05-05T18:16:40.342Z,99910.81
2023-05-05T18:19:12.490Z,99910.84
2023-05-05T18:21:39.885Z,99905.22
2023-05-05T18:24:19.563Z,99905.03
2023-05-05T18:26:51.234Z,99911.09
2023-05-05T18:29:19.993Z,99913.75
2023-05-05T18:31:51.984Z,99904.16
2023-05-05T18:34:22.006Z,99892.09
2023-05-05T18:36:53.712Z,99918.22
2023-05-05T18:39:21.461Z,99929.31
2023-05-05T18:41:48.897Z,99917.78
2023-05-05T18:44:16.803Z,99918.53
2023-05-05T18:46:44.135Z,99927.38
2023-05-05T18:49:11.859Z,99919.91
2023-05-05T18:51:39.190Z,99911.28
2023-05-05T18:54:06.978Z,99936.94
2023-05-05T18:56:34.277Z,99926.75
2023-05-05T18:59:01.811Z,99936.84
2023-05-05T19:01:29.241Z,99927.94
2023-05-05T19:03:57.047Z,99936.38
2023-05-05T19:06:24.378Z,99942.16
2023-05-05T19:08:52.033Z,99942.09
2023-05-05T19:11:19.284Z,99940.56
2023-05-05T19:13:46.997Z,99934.03
2023-05-05T19:16:14.400Z,99931.69
2023-05-05T19:18:42.016Z,99937.38
2023-05-05T19:21:09.464Z,99940.44
2023-05-05T19:23:38.250Z,99930.84
2023-05-05T19:26:06.089Z,99927.19
2023-05-05T19:28:33.726Z,99937.16
2023-05-05T19:31:01.331Z,99936.13
2023-05-05T19:33:28.929Z,99925.53
2023-05-05T19:35:56.667Z,99936.56
2023-05-05T19:38:24.292Z,99933.59
2023-05-05T19:40:54.253Z,99932.16
2023-05-05T19:43:22.387Z,99939.28
2023-05-05T19:45:49.676Z,99919.94
2023-05-05T19:48:18.829Z,99933.69
2023-05-05T19:50:46.096Z,99923.97
2023-05-05T19:53:14.443Z,99926.69
2023-05-05T19:55:42.560Z,99932.28
2023-05-05T19:58:10.209Z,99930.03
2023-05-05T20:00:38.658Z,99941.22
2023-05-05T20:03:07.175Z,99929.63
2023-05-05T20:05:34.511Z,99930.31
2023-05-05T20:08:02.104Z,99931.84
2023-05-05T20:10:30.773Z,99935.19
2023-05-05T20:12:59.997Z,99925.13
2023-05-05T20:15:27.496Z,99937.22
2023-05-05T20:17:55.467Z,99925.97
2023-05-05T20:20:23.175Z,99921.59
2023-05-05T20:22:50.911Z,99923.22
2023-05-05T20:25:19.122Z,99932.97
2023-05-05T20:27:48.113Z,99938.53
2023-05-05T20:30:15.485Z,99923.22
2023-05-05T20:32:44.507Z,99906.34
2023-05-05T20:35:12.979Z,99926.91
2023-05-05T20:37:41.395Z,99920.69
2023-05-05T20:40:09.511Z,99921.19
2023-05-05T20:42:38.226Z,99917.53
2023-05-05T20:45:07.125Z,99913.94
2023-05-05T20:47:35.613Z,99910.88
2023-05-05T20:50:04.106Z,99924.16
2023-05-05T20:52:33.427Z,99914.91
2023-05-05T20:55:00.645Z,99913.81
2023-05-05T20:57:28.615Z,99919.63
2023-05-05T20:59:55.879Z,99916.31
2023-05-05T21:02:24.059Z,99921.06
2023-05-05T21:04:52.681Z,99916.00
2023-05-05T21:07:20.287Z,99917.41
2023-05-05T21:09:47.821Z,99918.56
2023-05-05T21:12:15.343Z,99917.25
2023-05-05T21:14:45.980Z,99900.75
2023-05-05T21:17:13.589Z,99918.91
2023-05-05T21:19:41.993Z,99914.19
2023-05-05T21:22:10.020Z,99918.31
2023-05-05T21:24:39.056Z,99910.72
2023-05-05T21:27:06.813Z,99908.00
2023-05-05T21:29:37.732Z,99913.06
2023-05-05T21:32:09.537Z,99916.59
2023-05-05T21:34:37.394Z,99912.09
2023-05-05T21:37:06.209Z,99913.16
2023-05-05T21:39:33.665Z,99910.31
2023-05-05T21:42:01.508Z,99905.53
2023-05-05T21:44:36.560Z,99900.34
2023-05-05T21:47:06.566Z,99883.91
2023-05-05T21:49:37.140Z,99908.44
2023-05-05T21:55:38.056Z,99912.22
2023-05-05T22:01:44.653Z,99904.22
2023-05-05T22:04:25.377Z,99892.88
2023-05-05T22:07:06.452Z,99901.78
2023-05-05T22:09:51.011Z,99896.19
2023-05-05T22:12:50.182Z,99888.03
2023-05-05T22:15:35.623Z,99894.69
2023-05-05T22:18:34.541Z,99896.94
2023-05-05T22:21:22.218Z,99892.00
2023-05-05T22:27:00.769Z,99877.75
2023-05-05T22:29:41.736Z,99888.41
2023-05-05T22:35:29.096Z,99886.63
2023-05-05T22:38:13.164Z,99886.88
2023-05-05T22:40:49.716Z,99890.13
2023-05-05T22:43:24.403Z,99887.00
2023-05-05T22:45:53.896Z,99872.97
2023-05-05T22:48:21.754Z,99884.44
2023-05-05T22:50:49.105Z,99865.72
2023-05-05T22:53:45.807Z,99886.63
2023-05-05T22:56:31.164Z,99876.88
2023-05-05T22:59:36.659Z,99882.03
2023-05-05T23:02:13.942Z,99881.25
2023-05-05T23:05:34.437Z,99871.72
2023-05-05T23:08:13.315Z,99875.97
2023-05-05T23:10:50.112Z,99876.72
2023-05-05T23:13:22.396Z,99879.84
2023-05-05T23:15:51.053Z,99866.50
2023-05-05T23:18:20.097Z,99863.72
2023-05-05T23:20:50.544Z,99862.16
2023-05-05T23:23:21.905Z,99868.06
2023-05-05T23:26:04.374Z,99861.22
2023-05-05T23:28:35.676Z,99864.44
2023-05-05T23:31:07.518Z,99852.34
2023-05-05T23:33:42.515Z,99851.00
2023-05-05T23:36:11.688Z,99848.97
2023-05-05T23:38:45.678Z,99840.66
2023-05-05T23:41:18.962Z,99845.28
2023-05-05T23:43:47.309Z,99839.88
2023-05-05T23:46:27.063Z,99834.63
2023-05-05T23:49:02.050Z,99833.75
2023-05-05T23:51:33.633Z,99831.50
2023-05-05T23:54:06.824Z,99835.09
2023-05-05T23:56:40.154Z,99834.91
2023-05-05T23:59:11.021Z,99836.41
